Airfield :
LOGIN :

Register | Disclaimer

   EN    FR    IT 

 










Legend :    VFR   Marginal VFR   IFR   Intensive IFR   Very Intensive IFR
Visi :
Ceiling :
>= 8 km
>= 3000ft
5 to 8 km
1000 to 3000 ft
1500m to 5 km
500 to 1000 ft
800 to 1500m
200 to 500 ft
< 800m
< 200 ft
Symbols :   Thunderstorms  Fog  Heavy snow  Heavy precipitations  Wind > 20 kt
SIGMETs :     Misc.  Thunderstorms  Icing  Turbulence  Mountain Waves  Volcanic Ashes






- Airport Elevation : 86 ft
- IATA code : HAU


ENHD - Haugesund

CURRENT METAR :
  • 200750Z 18007KT 9999 BKN011 12/08 Q1016

EXPIRED METARs :
  • 200720Z 18008KT 150V210 9999 BKN009 11/08 Q1016
  • 200650Z 14007KT 9999 BKN007 BKN010 10/08 Q1016
  • 200620Z 15005KT 9999 FEW004 BKN007 10/09 Q1016
  • 200550Z 13007KT 9999 BKN005 10/08 Q1016
  • 200520Z 15004KT 9999 BKN005 10/09 Q1016

TAF TAF ENHD
Valid from the 20 at 06:00 until the 20 at 15:00 UTC


200500Z 2006/2015 VRB05KT 8000 OVC005
BECMG 2007/2010 17010KT FEW005 SCT015



MET'MAP, your aeronautical weather chart ! - Copyright ORBIFLY December 2007 - Disclaimer

ORBIFLY MET'MAP TEAM :

Programming & Development : Alexandra Zaïnal
Original concept : Baudouin d'Aumeries
Technical & hardware support : Manuel Goepfert
Assistance : Marc-Olivier Méhu

Contact : metmap@orbifly.com




SOURCES & CREDITS :

   NOAA